Bow Clipper — LAUU4 — position and weather

sailwx.info

Track history (hours):
 
Tides and Currents Weather Stations Pressure Air Temp Water Temp Dewpoint Dewpoint Depression Visibility Wind Speed Wind Dir Waves Ship Positions

Bow Clipper

Last reported at 2018-Feb-20 16:02 UTC. Time now 2018-Feb-21 23:03 UTC.
Position N 25°36' W 079°30'.

Length 188 m; draft 6.1 m.

Type: Ship (hazmat cat B). MMSI: 258946991.

Date/timePositionNaut miles runAvg speedWind from/ knotsBaromVisibWave heightAir tempDewpointWater temp
2018-Feb-20 16:02N 25°36' W 079°30'311.8
2018-Feb-20 15:48N 25°39' W 079°30'511.8
2018-Feb-20 15:21N 25°44' W 079°29'511.9
2018-Feb-20 14:54N 25°49' W 079°28'511.8
2018-Feb-20 14:28N 25°54' W 079°28'1511.5
2018-Feb-20 13:10N 26°09' W 079°26'211.7
2018-Feb-20 12:59N 26°11' W 079°25'811.4
2018-Feb-20 12:18N 26°19' W 079°25'  
2018-Feb-16 06:20N 32°49' W 079°56'  
Track history (hours):
 
Tides and Currents Weather Stations Pressure Air Temp Water Temp Dewpoint Dewpoint Depression Visibility Wind Speed Wind Dir Waves Ship Positions

Bow Clipper

Last reported at 2018-Feb-20 16:02 UTC. Time now 2018-Feb-21 23:03 UTC.
Position N 25°36' W 079°30'.

Length 188 m; draft 6.1 m.

Type: Ship (hazmat cat B). MMSI: 258946991.

Date/timePositionNaut miles runAvg speedWind from/ knotsBaromVisibWave heightAir tempDewpointWater temp
2018-Feb-20 16:02N 25°36' W 079°30'311.8
2018-Feb-20 15:48N 25°39' W 079°30'511.8
2018-Feb-20 15:21N 25°44' W 079°29'511.9
2018-Feb-20 14:54N 25°49' W 079°28'511.8
2018-Feb-20 14:28N 25°54' W 079°28'1511.5
2018-Feb-20 13:10N 26°09' W 079°26'211.7
2018-Feb-20 12:59N 26°11' W 079°25'811.4
2018-Feb-20 12:18N 26°19' W 079°25'  
2018-Feb-16 06:20N 32°49' W 079°56'  

Dump ship's entire track history